CDT,Max TemperatureF,Mean TemperatureF,Min TemperatureF,Max Dew PointF,MeanDew PointF,Min DewpointF,Max Humidity, Mean Humidity, Min Humidity, Max Sea Level PressureIn, Mean Sea Level PressureIn, Min Sea Level PressureIn, Max VisibilityMiles, Mean VisibilityMiles, Min VisibilityMiles, Max Wind SpeedMPH, Mean Wind SpeedMPH, Max Gust SpeedMPH,PrecipitationIn, CloudCover, Events, WindDirDegrees
2013-5-1,83,75,66,66,64,63,100,77,54,29.91,29.87,29.81,10,9,2,15,4,17,0.07,7,Rain-Thunderstorm,52
2013-5-2,72,63,54,65,63,54,100,87,73,30.04,29.96,29.89,10,9,2,23,9,32,0.07,8,Rain,355
2013-5-3,61,52,43,52,43,38,100,72,44,30.10,30.05,30.01,10,10,5,24,13,31,T,6,,312
2013-5-4,77,58,38,43,37,32,100,62,23,30.04,29.95,29.82,10,10,10,23,8,29,0.00,2,,271
2013-5-5,67,55,42,44,40,38,89,63,37,30.06,30.01,29.95,10,10,10,20,8,24,0.00,2,,328
2013-5-6,78,62,46,54,48,42,86,63,39,30.07,30.01,29.94,10,10,10,18,5,24,0.00,0,,288
2013-5-7,83,69,54,57,53,48,93,62,31,30.07,30.02,29.98,10,10,8,13,2,16,0.00,0,,360
2013-5-8,85,70,55,62,58,54,100,72,43,30.09,30.04,30.01,10,9,3,14,5,20,0.00,1,,172
2013-5-9,80,70,60,70,67,59,100,84,67,30.08,30.01,29.95,10,8,1,13,6,17,T,5,Rain-Thunderstorm,142
2013-5-10,76,70,64,70,66,63,100,87,73,30.01,29.96,29.85,10,7,0,26,5,33,0.80,5,Fog-Rain-Thunderstorm,290
2013-5-11,82,72,62,66,64,61,100,77,54,30.10,30.01,29.93,10,9,4,15,5,24,0.03,3,Rain,338
2013-5-12,77,66,54,61,55,50,100,72,43,30.20,30.14,30.08,10,7,1,15,5,18,0.00,0,,15
2013-5-13,80,64,48,54,49,43,100,63,26,30.31,30.23,30.19,10,10,10,12,3,16,0.00,0,,142
2013-5-14,86,70,54,61,54,47,100,65,30,30.25,30.19,30.12,10,10,10,13,5,18,0.00,0,,189
2013-5-15,83,70,57,65,61,56,100,72,43,30.17,30.09,29.99,10,10,6,17,7,22,0.00,2,,162
2013-5-16,83,74,65,68,65,63,100,78,55,29.98,29.93,29.85,10,9,5,20,8,24,T,4,,165
2013-5-17,88,77,66,72,69,65,100,78,55,29.99,29.93,29.89,10,9,7,17,8,22,0.00,5,,171
2013-5-18,89,80,71,72,70,68,93,76,59,30.02,29.97,29.93,10,10,8,15,8,20,0.00,4,,175
2013-5-19,90,81,72,72,70,68,93,73,53,29.96,29.93,29.87,10,10,7,20,9,24,0.00,4,,167
2013-5-20,90,83,75,73,72,71,94,75,56,29.96,29.91,29.83,10,10,10,18,9,25,0.00,6,,165
2013-5-21,90,79,67,74,71,64,100,78,55,29.92,29.88,29.75,10,9,1,23,9,31,1.23,5,Rain-Thunderstorm,167
2013-5-22,84,75,66,73,68,64,100,85,69,29.96,29.90,29.79,10,9,1,20,5,24,0.56,4,Rain-Thunderstorm,139
2013-5-23,90,79,68,76,71,64,100,80,59,30.06,29.98,29.94,10,7,0,16,3,21,0.10,4,Fog-Rain-Thunderstorm,153
2013-5-24,89,78,66,72,68,66,100,78,55,30.17,30.12,30.04,10,10,8,13,4,17,0.00,1,,57
2013-5-25,86,78,70,71,66,60,90,72,54,30.22,30.16,30.11,10,10,10,13,6,17,0.00,1,,97
2013-5-26,85,79,72,71,68,64,100,76,51,30.17,30.11,30.06,10,9,7,12,5,16,0.00,1,,145
2013-5-27,88,78,68,72,68,62,100,72,43,30.10,30.04,29.97,10,10,5,16,7,22,0.00,2,,163
2013-5-28,88,79,69,71,68,65,100,74,48,30.02,29.97,29.92,10,9,5,17,8,21,0.00,1,,159
2013-5-29,88,77,66,75,69,64,93,73,53,29.98,29.93,29.86,10,9,4,21,6,24,0.00,3,,146
2013-5-30,88,81,73,76,73,71,100,82,63,29.95,29.92,29.85,10,10,6,18,10,25,T,5,Rain,150
2013-5-31,89,81,72,77,74,71,100,82,63,29.96,29.92,29.88,10,10,9,18,9,23,0.06,6,Rain,157